sensor_id;sensor_type;location;lat;lon;timestamp;pressure;altitude;pressure_sealevel;temperature;humidity
13367;BME280;6752;52.612;13.630;2023-12-20T00:04:14;100243.91;;;7.12;100.00
13367;BME280;6752;52.612;13.630;2023-12-20T00:09:16;100247.11;;;7.08;100.00
13367;BME280;6752;52.612;13.630;2023-12-20T00:14:18;100238.05;;;7.05;100.00
13367;BME280;6752;52.612;13.630;2023-12-20T00:19:21;100236.27;;;7.05;100.00
13367;BME280;6752;52.612;13.630;2023-12-20T00:24:23;100228.14;;;7.05;100.00
13367;BME280;6752;52.612;13.630;2023-12-20T00:29:25;100229.71;;;7.03;100.00
13367;BME280;6752;52.612;13.630;2023-12-20T00:34:28;100215.23;;;6.97;100.00
13367;BME280;6752;52.612;13.630;2023-12-20T00:39:30;100221.80;;;6.98;100.00
13367;BME280;6752;52.612;13.630;2023-12-20T00:44:32;100220.22;;;7.03;100.00
13367;BME280;6752;52.612;13.630;2023-12-20T00:49:35;100213.97;;;7.03;100.00
13367;BME280;6752;52.612;13.630;2023-12-20T00:54:37;100209.80;;;7.00;100.00
13367;BME280;6752;52.612;13.630;2023-12-20T00:59:40;100213.98;;;6.99;100.00
13367;BME280;6752;52.612;13.630;2023-12-20T01:04:44;100214.60;;;6.98;100.00
13367;BME280;6752;52.612;13.630;2023-12-20T01:09:46;100224.81;;;6.99;100.00
13367;BME280;6752;52.612;13.630;2023-12-20T01:14:48;100220.85;;;7.02;100.00
13367;BME280;6752;52.612;13.630;2023-12-20T01:19:51;100228.56;;;6.98;100.00
13367;BME280;6752;52.612;13.630;2023-12-20T01:24:53;100219.29;;;7.03;100.00
13367;BME280;6752;52.612;13.630;2023-12-20T01:29:56;100217.41;;;7.01;100.00
13367;BME280;6752;52.612;13.630;2023-12-20T01:34:58;100214.07;;;7.05;100.00
13367;BME280;6752;52.612;13.630;2023-12-20T01:40:00;100216.79;;;7.02;100.00
13367;BME280;6752;52.612;13.630;2023-12-20T01:45:03;100216.98;;;7.07;100.00
13367;BME280;6752;52.612;13.630;2023-12-20T01:50:05;100208.14;;;6.99;100.00
13367;BME280;6752;52.612;13.630;2023-12-20T01:55:08;100207.00;;;6.98;100.00
13367;BME280;6752;52.612;13.630;2023-12-20T02:00:10;100205.73;;;7.07;100.00
13367;BME280;6752;52.612;13.630;2023-12-20T02:05:12;100203.34;;;7.01;100.00
13367;BME280;6752;52.612;13.630;2023-12-20T02:10:15;100216.89;;;7.04;100.00
13367;BME280;6752;52.612;13.630;2023-12-20T02:15:17;100196.67;;;7.00;100.00
13367;BME280;6752;52.612;13.630;2023-12-20T02:20:19;100188.75;;;7.05;100.00
13367;BME280;6752;52.612;13.630;2023-12-20T02:25:22;100202.52;;;6.94;100.00
13367;BME280;6752;52.612;13.630;2023-12-20T02:30:24;100186.99;;;6.95;100.00
13367;BME280;6752;52.612;13.630;2023-12-20T02:35:26;100193.25;;;6.96;100.00
13367;BME280;6752;52.612;13.630;2023-12-20T02:40:29;100201.06;;;6.91;100.00
13367;BME280;6752;52.612;13.630;2023-12-20T02:45:31;100198.75;;;6.85;100.00
13367;BME280;6752;52.612;13.630;2023-12-20T02:50:33;100200.73;;;6.77;100.00
13367;BME280;6752;52.612;13.630;2023-12-20T02:55:36;100196.16;;;6.81;100.00
13367;BME280;6752;52.612;13.630;2023-12-20T03:00:38;100194.80;;;6.78;100.00
13367;BME280;6752;52.612;13.630;2023-12-20T03:05:40;100205.02;;;6.69;100.00
13367;BME280;6752;52.612;13.630;2023-12-20T03:10:43;100200.12;;;6.72;100.00
13367;BME280;6752;52.612;13.630;2023-12-20T03:15:45;100194.39;;;6.71;100.00
13367;BME280;6752;52.612;13.630;2023-12-20T03:20:48;100197.62;;;6.67;100.00
13367;BME280;6752;52.612;13.630;2023-12-20T03:25:50;100201.66;;;6.60;100.00
13367;BME280;6752;52.612;13.630;2023-12-20T03:30:52;100211.75;;;6.49;100.00
13367;BME280;6752;52.612;13.630;2023-12-20T03:35:55;100200.92;;;6.46;100.00
13367;BME280;6752;52.612;13.630;2023-12-20T03:40:57;100208.52;;;6.40;100.00
13367;BME280;6752;52.612;13.630;2023-12-20T03:45:59;100206.81;;;6.36;100.00
13367;BME280;6752;52.612;13.630;2023-12-20T03:51:02;100200.57;;;6.38;100.00
13367;BME280;6752;52.612;13.630;2023-12-20T03:56:04;100187.23;;;6.30;100.00
13367;BME280;6752;52.612;13.630;2023-12-20T04:01:10;100197.64;;;6.20;100.00
13367;BME280;6752;52.612;13.630;2023-12-20T04:06:16;100191.91;;;6.19;100.00
13367;BME280;6752;52.612;13.630;2023-12-20T04:11:14;100188.89;;;6.21;100.00
13367;BME280;6752;52.612;13.630;2023-12-20T04:16:16;100181.67;;;6.11;100.00
13367;BME280;6752;52.612;13.630;2023-12-20T04:21:19;100182.86;;;6.19;100.00
13367;BME280;6752;52.612;13.630;2023-12-20T04:26:21;100175.56;;;6.16;100.00
13367;BME280;6752;52.612;13.630;2023-12-20T04:31:24;100182.91;;;6.09;100.00
13367;BME280;6752;52.612;13.630;2023-12-20T04:36:26;100172.41;;;6.10;100.00
13367;BME280;6752;52.612;13.630;2023-12-20T04:41:28;100166.67;;;6.05;100.00
13367;BME280;6752;52.612;13.630;2023-12-20T04:46:31;100162.50;;;5.96;100.00
13367;BME280;6752;52.612;13.630;2023-12-20T04:51:33;100169.39;;;5.88;100.00
13367;BME280;6752;52.612;13.630;2023-12-20T04:56:35;100176.23;;;5.84;100.00
13367;BME280;6752;52.612;13.630;2023-12-20T05:01:38;100162.98;;;5.68;100.00
13367;BME280;6752;52.612;13.630;2023-12-20T05:06:40;100168.14;;;5.63;100.00
13367;BME280;6752;52.612;13.630;2023-12-20T05:11:42;100163.72;;;5.70;100.00
13367;BME280;6752;52.612;13.630;2023-12-20T05:16:45;100159.27;;;5.76;100.00
13367;BME280;6752;52.612;13.630;2023-12-20T05:21:47;100168.44;;;5.82;100.00
13367;BME280;6752;52.612;13.630;2023-12-20T05:26:49;100176.77;;;5.83;100.00
13367;BME280;6752;52.612;13.630;2023-12-20T05:31:52;100178.92;;;5.74;100.00
13367;BME280;6752;52.612;13.630;2023-12-20T05:36:54;100177.55;;;5.71;100.00
13367;BME280;6752;52.612;13.630;2023-12-20T05:41:57;100170.41;;;5.60;100.00
13367;BME280;6752;52.612;13.630;2023-12-20T05:46:59;100171.75;;;5.53;100.00
13367;BME280;6752;52.612;13.630;2023-12-20T05:52:01;100160.82;;;5.51;100.00
13367;BME280;6752;52.612;13.630;2023-12-20T05:57:04;100155.14;;;5.42;100.00
13367;BME280;6752;52.612;13.630;2023-12-20T06:02:06;100147.21;;;5.34;100.00
13367;BME280;6752;52.612;13.630;2023-12-20T06:07:09;100150.39;;;5.24;100.00
13367;BME280;6752;52.612;13.630;2023-12-20T06:12:14;100147.62;;;5.17;100.00
13367;BME280;6752;52.612;13.630;2023-12-20T06:17:16;100145.19;;;5.22;100.00
13367;BME280;6752;52.612;13.630;2023-12-20T06:22:18;100142.69;;;5.20;100.00
13367;BME280;6752;52.612;13.630;2023-12-20T06:27:21;100147.72;;;5.30;100.00
13367;BME280;6752;52.612;13.630;2023-12-20T06:32:23;100145.00;;;5.27;100.00
13367;BME280;6752;52.612;13.630;2023-12-20T06:37:25;100158.08;;;5.23;100.00
13367;BME280;6752;52.612;13.630;2023-12-20T06:42:28;100148.62;;;5.23;100.00
13367;BME280;6752;52.612;13.630;2023-12-20T06:47:30;100145.97;;;5.19;100.00
13367;BME280;6752;52.612;13.630;2023-12-20T06:52:33;100139.11;;;5.20;100.00
13367;BME280;6752;52.612;13.630;2023-12-20T06:57:35;100141.06;;;5.16;100.00
13367;BME280;6752;52.612;13.630;2023-12-20T07:02:37;100134.09;;;5.14;100.00
13367;BME280;6752;52.612;13.630;2023-12-20T07:07:40;100131.87;;;5.21;100.00
13367;BME280;6752;52.612;13.630;2023-12-20T07:12:42;100130.95;;;5.24;100.00
13367;BME280;6752;52.612;13.630;2023-12-20T07:17:44;100141.60;;;5.36;100.00
13367;BME280;6752;52.612;13.630;2023-12-20T07:22:47;100131.22;;;5.39;100.00
13367;BME280;6752;52.612;13.630;2023-12-20T07:27:49;100135.27;;;5.36;100.00
13367;BME280;6752;52.612;13.630;2023-12-20T07:32:51;100134.45;;;5.42;100.00
13367;BME280;6752;52.612;13.630;2023-12-20T07:37:54;100125.45;;;5.46;100.00
13367;BME280;6752;52.612;13.630;2023-12-20T07:42:56;100124.84;;;5.47;100.00
13367;BME280;6752;52.612;13.630;2023-12-20T07:47:59;100121.32;;;5.53;100.00
13367;BME280;6752;52.612;13.630;2023-12-20T07:53:01;100124.13;;;5.55;100.00
13367;BME280;6752;52.612;13.630;2023-12-20T07:58:03;100118.84;;;5.58;100.00
13367;BME280;6752;52.612;13.630;2023-12-20T08:03:08;100112.09;;;5.61;100.00
13367;BME280;6752;52.612;13.630;2023-12-20T08:08:11;100118.64;;;5.63;100.00
13367;BME280;6752;52.612;13.630;2023-12-20T08:13:13;100117.80;;;5.59;100.00
13367;BME280;6752;52.612;13.630;2023-12-20T08:18:15;100124.30;;;5.68;100.00
13367;BME280;6752;52.612;13.630;2023-12-20T08:23:18;100124.72;;;5.68;100.00
13367;BME280;6752;52.612;13.630;2023-12-20T08:28:20;100125.56;;;5.72;100.00
13367;BME280;6752;52.612;13.630;2023-12-20T08:33:22;100120.42;;;5.66;100.00
13367;BME280;6752;52.612;13.630;2023-12-20T08:38:25;100123.17;;;5.73;100.00
13367;BME280;6752;52.612;13.630;2023-12-20T08:43:27;100111.09;;;5.69;100.00
13367;BME280;6752;52.612;13.630;2023-12-20T08:48:29;100104.92;;;5.68;100.00
13367;BME280;6752;52.612;13.630;2023-12-20T08:53:32;100098.21;;;5.74;100.00
13367;BME280;6752;52.612;13.630;2023-12-20T08:58:34;100105.27;;;5.93;100.00
13367;BME280;6752;52.612;13.630;2023-12-20T09:03:37;100096.64;;;6.03;100.00
13367;BME280;6752;52.612;13.630;2023-12-20T09:08:39;100099.13;;;5.95;100.00
13367;BME280;6752;52.612;13.630;2023-12-20T09:13:41;100093.83;;;5.94;100.00
13367;BME280;6752;52.612;13.630;2023-12-20T09:18:44;100097.58;;;6.09;100.00
13367;BME280;6752;52.612;13.630;2023-12-20T09:23:46;100097.06;;;6.13;100.00
13367;BME280;6752;52.612;13.630;2023-12-20T09:28:48;100106.25;;;6.19;100.00
13367;BME280;6752;52.612;13.630;2023-12-20T09:33:51;100089.56;;;6.12;100.00
13367;BME280;6752;52.612;13.630;2023-12-20T09:38:56;100083.73;;;6.12;100.00
13367;BME280;6752;52.612;13.630;2023-12-20T09:43:55;100079.19;;;6.15;100.00
13367;BME280;6752;52.612;13.630;2023-12-20T09:48:59;100087.91;;;6.08;100.00
13367;BME280;6752;52.612;13.630;2023-12-20T09:54:00;100075.76;;;6.18;100.00
13367;BME280;6752;52.612;13.630;2023-12-20T09:59:02;100073.64;;;6.13;100.00
13367;BME280;6752;52.612;13.630;2023-12-20T10:04:05;100067.84;;;6.23;100.00
13367;BME280;6752;52.612;13.630;2023-12-20T10:09:07;100057.22;;;6.24;100.00
13367;BME280;6752;52.612;13.630;2023-12-20T10:14:10;100049.52;;;6.31;100.00
13367;BME280;6752;52.612;13.630;2023-12-20T10:19:12;100034.84;;;6.23;100.00
13367;BME280;6752;52.612;13.630;2023-12-20T10:24:17;100018.61;;;6.26;100.00
13367;BME280;6752;52.612;13.630;2023-12-20T10:29:19;100011.94;;;6.29;100.00
13367;BME280;6752;52.612;13.630;2023-12-20T10:34:22;100004.73;;;6.39;100.00
13367;BME280;6752;52.612;13.630;2023-12-20T10:39:24;100018.81;;;6.41;100.00
13367;BME280;6752;52.612;13.630;2023-12-20T10:44:26;100022.13;;;6.34;100.00
13367;BME280;6752;52.612;13.630;2023-12-20T10:49:29;99993.20;;;6.31;100.00
13367;BME280;6752;52.612;13.630;2023-12-20T10:54:31;99977.23;;;6.94;100.00
13367;BME280;6752;52.612;13.630;2023-12-20T10:59:34;99967.34;;;6.93;100.00
13367;BME280;6752;52.612;13.630;2023-12-20T11:04:40;99979.84;;;6.52;100.00
13367;BME280;6752;52.612;13.630;2023-12-20T11:09:41;99972.69;;;6.42;100.00
13367;BME280;6752;52.612;13.630;2023-12-20T11:14:46;99951.02;;;6.45;100.00
13367;BME280;6752;52.612;13.630;2023-12-20T11:25:04;99917.98;;;6.53;100.00
13367;BME280;6752;52.612;13.630;2023-12-20T11:30:05;99920.19;;;6.50;100.00
13367;BME280;6752;52.612;13.630;2023-12-20T11:40:12;99905.73;;;6.37;100.00
13367;BME280;6752;52.612;13.630;2023-12-20T11:45:14;99888.88;;;6.35;100.00
13367;BME280;6752;52.612;13.630;2023-12-20T11:50:19;99880.04;;;6.34;100.00
13367;BME280;6752;52.612;13.630;2023-12-20T11:55:22;99858.38;;;6.34;100.00
13367;BME280;6752;52.612;13.630;2023-12-20T12:00:24;99853.16;;;6.46;100.00
13367;BME280;6752;52.612;13.630;2023-12-20T12:05:26;99841.77;;;6.52;100.00
13367;BME280;6752;52.612;13.630;2023-12-20T12:10:31;99820.16;;;6.61;100.00
13367;BME280;6752;52.612;13.630;2023-12-20T12:15:33;99807.89;;;6.59;100.00
13367;BME280;6752;52.612;13.630;2023-12-20T12:20:36;99794.25;;;6.63;100.00
13367;BME280;6752;52.612;13.630;2023-12-20T12:25:38;99784.91;;;6.52;100.00
13367;BME280;6752;52.612;13.630;2023-12-20T12:30:40;99779.55;;;6.46;100.00
13367;BME280;6752;52.612;13.630;2023-12-20T12:35:43;99771.64;;;6.44;100.00
13367;BME280;6752;52.612;13.630;2023-12-20T12:40:50;99756.89;;;6.34;100.00
13367;BME280;6752;52.612;13.630;2023-12-20T12:45:53;99757.63;;;6.31;100.00
13367;BME280;6752;52.612;13.630;2023-12-20T12:50:55;99745.98;;;6.31;100.00
13367;BME280;6752;52.612;13.630;2023-12-20T12:55:57;99759.98;;;6.21;100.00
13367;BME280;6752;52.612;13.630;2023-12-20T13:00:59;99736.27;;;6.20;100.00
13367;BME280;6752;52.612;13.630;2023-12-20T13:06:02;99716.49;;;6.20;100.00
13367;BME280;6752;52.612;13.630;2023-12-20T13:11:05;99706.11;;;6.17;100.00
13367;BME280;6752;52.612;13.630;2023-12-20T13:16:07;99720.57;;;6.16;100.00
13367;BME280;6752;52.612;13.630;2023-12-20T13:21:10;99737.62;;;6.13;100.00
13367;BME280;6752;52.612;13.630;2023-12-20T13:26:12;99790.59;;;6.19;100.00
13367;BME280;6752;52.612;13.630;2023-12-20T13:31:14;99831.84;;;4.61;100.00
13367;BME280;6752;52.612;13.630;2023-12-20T13:36:18;99804.08;;;4.77;100.00
13367;BME280;6752;52.612;13.630;2023-12-20T13:41:20;99791.72;;;4.92;100.00
13367;BME280;6752;52.612;13.630;2023-12-20T13:46:22;99766.81;;;5.13;100.00
13367;BME280;6752;52.612;13.630;2023-12-20T13:51:25;99785.94;;;5.48;100.00
13367;BME280;6752;52.612;13.630;2023-12-20T13:56:27;99799.64;;;5.56;100.00
13367;BME280;6752;52.612;13.630;2023-12-20T14:01:29;99793.17;;;5.64;100.00
13367;BME280;6752;52.612;13.630;2023-12-20T14:06:32;99815.73;;;5.67;100.00
13367;BME280;6752;52.612;13.630;2023-12-20T14:11:34;99817.61;;;5.63;100.00
13367;BME280;6752;52.612;13.630;2023-12-20T14:16:36;99814.29;;;5.61;100.00
13367;BME280;6752;52.612;13.630;2023-12-20T14:21:39;99832.28;;;5.61;100.00
13367;BME280;6752;52.612;13.630;2023-12-20T14:26:41;99838.53;;;5.55;100.00
13367;BME280;6752;52.612;13.630;2023-12-20T14:31:44;99852.16;;;5.48;100.00
13367;BME280;6752;52.612;13.630;2023-12-20T14:36:46;99855.87;;;5.44;100.00
13367;BME280;6752;52.612;13.630;2023-12-20T14:41:48;99846.34;;;5.44;100.00
13367;BME280;6752;52.612;13.630;2023-12-20T14:46:51;99864.81;;;5.41;100.00
13367;BME280;6752;52.612;13.630;2023-12-20T14:51:56;99856.92;;;5.36;100.00
13367;BME280;6752;52.612;13.630;2023-12-20T14:56:58;99850.99;;;5.40;100.00
13367;BME280;6752;52.612;13.630;2023-12-20T15:02:00;99865.75;;;5.31;100.00
13367;BME280;6752;52.612;13.630;2023-12-20T15:07:03;99878.22;;;5.28;100.00
13367;BME280;6752;52.612;13.630;2023-12-20T15:12:05;99880.38;;;5.16;100.00
13367;BME280;6752;52.612;13.630;2023-12-20T15:17:07;99882.66;;;5.12;100.00
13367;BME280;6752;52.612;13.630;2023-12-20T15:22:10;99889.61;;;5.01;100.00
13367;BME280;6752;52.612;13.630;2023-12-20T15:27:12;99896.30;;;4.87;100.00
13367;BME280;6752;52.612;13.630;2023-12-20T15:32:19;99882.06;;;4.83;100.00
13367;BME280;6752;52.612;13.630;2023-12-20T15:37:22;99896.60;;;4.82;100.00
13367;BME280;6752;52.612;13.630;2023-12-20T15:42:24;99903.56;;;4.84;100.00
13367;BME280;6752;52.612;13.630;2023-12-20T15:47:26;99893.60;;;4.87;100.00
13367;BME280;6752;52.612;13.630;2023-12-20T15:52:29;99895.69;;;4.92;100.00
13367;BME280;6752;52.612;13.630;2023-12-20T15:57:31;99905.45;;;4.90;100.00
13367;BME280;6752;52.612;13.630;2023-12-20T16:02:33;99903.26;;;4.86;100.00
13367;BME280;6752;52.612;13.630;2023-12-20T16:07:36;99899.19;;;4.76;100.00
13367;BME280;6752;52.612;13.630;2023-12-20T16:12:39;99890.92;;;4.63;100.00
13367;BME280;6752;52.612;13.630;2023-12-20T16:17:41;99900.98;;;4.62;100.00
13367;BME280;6752;52.612;13.630;2023-12-20T16:22:44;99907.33;;;4.65;100.00
13367;BME280;6752;52.612;13.630;2023-12-20T16:27:46;99899.63;;;4.62;100.00
13367;BME280;6752;52.612;13.630;2023-12-20T16:32:48;99908.87;;;4.60;100.00
13367;BME280;6752;52.612;13.630;2023-12-20T16:37:51;99915.81;;;4.59;100.00
13367;BME280;6752;52.612;13.630;2023-12-20T16:42:53;99912.28;;;4.58;100.00
13367;BME280;6752;52.612;13.630;2023-12-20T16:47:56;99921.86;;;4.64;100.00
13367;BME280;6752;52.612;13.630;2023-12-20T16:53:06;99929.64;;;4.63;100.00
13367;BME280;6752;52.612;13.630;2023-12-20T16:58:08;99921.03;;;4.67;100.00
13367;BME280;6752;52.612;13.630;2023-12-20T17:03:10;99926.81;;;4.57;100.00
13367;BME280;6752;52.612;13.630;2023-12-20T17:08:13;99930.34;;;4.58;100.00
13367;BME280;6752;52.612;13.630;2023-12-20T17:13:15;99931.06;;;4.56;100.00
13367;BME280;6752;52.612;13.630;2023-12-20T17:18:17;99928.14;;;4.51;100.00
13367;BME280;6752;52.612;13.630;2023-12-20T17:23:20;99930.84;;;4.51;100.00
13367;BME280;6752;52.612;13.630;2023-12-20T17:28:22;99926.84;;;4.47;100.00
13367;BME280;6752;52.612;13.630;2023-12-20T17:33:25;99926.00;;;4.43;100.00
13367;BME280;6752;52.612;13.630;2023-12-20T17:38:27;99918.20;;;4.41;100.00
13367;BME280;6752;52.612;13.630;2023-12-20T17:43:29;99919.36;;;4.42;100.00
13367;BME280;6752;52.612;13.630;2023-12-20T17:48:32;99906.38;;;4.42;100.00
13367;BME280;6752;52.612;13.630;2023-12-20T17:53:34;99905.86;;;4.42;100.00
13367;BME280;6752;52.612;13.630;2023-12-20T17:58:36;99916.05;;;4.47;100.00
13367;BME280;6752;52.612;13.630;2023-12-20T18:03:39;99903.06;;;4.43;100.00
13367;BME280;6752;52.612;13.630;2023-12-20T18:08:41;99922.55;;;4.56;100.00
13367;BME280;6752;52.612;13.630;2023-12-20T18:13:46;99925.25;;;4.56;100.00
13367;BME280;6752;52.612;13.630;2023-12-20T18:18:49;99920.71;;;4.63;100.00
13367;BME280;6752;52.612;13.630;2023-12-20T18:23:51;99929.50;;;4.75;100.00
13367;BME280;6752;52.612;13.630;2023-12-20T18:28:53;99934.72;;;4.83;100.00
13367;BME280;6752;52.612;13.630;2023-12-20T18:33:56;99919.56;;;4.85;100.00
13367;BME280;6752;52.612;13.630;2023-12-20T18:38:58;99930.69;;;4.93;100.00
13367;BME280;6752;52.612;13.630;2023-12-20T18:44:00;99927.88;;;4.90;100.00
13367;BME280;6752;52.612;13.630;2023-12-20T18:49:03;99930.48;;;4.94;100.00
13367;BME280;6752;52.612;13.630;2023-12-20T18:54:05;99929.45;;;4.95;100.00
13367;BME280;6752;52.612;13.630;2023-12-20T18:59:08;99928.14;;;4.99;100.00
13367;BME280;6752;52.612;13.630;2023-12-20T19:04:11;99914.44;;;5.03;100.00
13367;BME280;6752;52.612;13.630;2023-12-20T19:09:13;99911.52;;;5.02;100.00
13367;BME280;6752;52.612;13.630;2023-12-20T19:14:15;99913.19;;;5.03;100.00
13367;BME280;6752;52.612;13.630;2023-12-20T19:19:19;99902.80;;;5.03;100.00
13367;BME280;6752;52.612;13.630;2023-12-20T19:24:21;99912.47;;;5.08;100.00
13367;BME280;6752;52.612;13.630;2023-12-20T19:29:24;99915.94;;;4.89;100.00
13367;BME280;6752;52.612;13.630;2023-12-20T19:34:26;99910.75;;;4.63;100.00
13367;BME280;6752;52.612;13.630;2023-12-20T19:39:28;99900.45;;;4.56;100.00
13367;BME280;6752;52.612;13.630;2023-12-20T19:44:31;99896.72;;;4.60;100.00
13367;BME280;6752;52.612;13.630;2023-12-20T19:49:33;99905.25;;;4.67;100.00
13367;BME280;6752;52.612;13.630;2023-12-20T19:54:35;99889.22;;;4.76;100.00
13367;BME280;6752;52.612;13.630;2023-12-20T19:59:38;99882.38;;;4.81;100.00
13367;BME280;6752;52.612;13.630;2023-12-20T20:04:40;99868.67;;;4.82;100.00
13367;BME280;6752;52.612;13.630;2023-12-20T20:09:42;99859.53;;;4.83;100.00
13367;BME280;6752;52.612;13.630;2023-12-20T20:14:45;99874.48;;;4.86;100.00
13367;BME280;6752;52.612;13.630;2023-12-20T20:19:47;99872.11;;;4.93;100.00
13367;BME280;6752;52.612;13.630;2023-12-20T20:24:53;99869.81;;;4.87;100.00
13367;BME280;6752;52.612;13.630;2023-12-20T20:29:55;99849.36;;;4.85;100.00
13367;BME280;6752;52.612;13.630;2023-12-20T20:34:57;99858.61;;;4.93;100.00
13367;BME280;6752;52.612;13.630;2023-12-20T20:39:59;99853.83;;;4.92;100.00
13367;BME280;6752;52.612;13.630;2023-12-20T20:45:02;99850.61;;;4.92;100.00
13367;BME280;6752;52.612;13.630;2023-12-20T20:50:04;99842.30;;;4.94;100.00
13367;BME280;6752;52.612;13.630;2023-12-20T20:55:07;99828.49;;;4.93;100.00
13367;BME280;6752;52.612;13.630;2023-12-20T21:00:09;99829.31;;;4.87;100.00
13367;BME280;6752;52.612;13.630;2023-12-20T21:05:11;99829.01;;;4.89;100.00
13367;BME280;6752;52.612;13.630;2023-12-20T21:10:14;99822.98;;;4.87;100.00
13367;BME280;6752;52.612;13.630;2023-12-20T21:15:19;99819.66;;;4.82;100.00
13367;BME280;6752;52.612;13.630;2023-12-20T21:20:26;99811.97;;;4.85;100.00
13367;BME280;6752;52.612;13.630;2023-12-20T21:25:29;99808.55;;;4.87;100.00
13367;BME280;6752;52.612;13.630;2023-12-20T21:30:31;99804.08;;;4.87;100.00
13367;BME280;6752;52.612;13.630;2023-12-20T21:35:33;99788.39;;;4.80;100.00
13367;BME280;6752;52.612;13.630;2023-12-20T21:40:36;99778.08;;;4.73;100.00
13367;BME280;6752;52.612;13.630;2023-12-20T21:45:38;99780.36;;;4.69;100.00
13367;BME280;6752;52.612;13.630;2023-12-20T21:50:40;99770.60;;;4.68;100.00
13367;BME280;6752;52.612;13.630;2023-12-20T21:55:43;99754.61;;;4.63;100.00
13367;BME280;6752;52.612;13.630;2023-12-20T22:00:45;99750.35;;;4.62;100.00
13367;BME280;6752;52.612;13.630;2023-12-20T22:05:47;99741.33;;;4.62;100.00
13367;BME280;6752;52.612;13.630;2023-12-20T22:10:50;99734.58;;;4.59;100.00
13367;BME280;6752;52.612;13.630;2023-12-20T22:15:52;99713.81;;;4.59;100.00
13367;BME280;6752;52.612;13.630;2023-12-20T22:20:54;99708.52;;;4.58;100.00
13367;BME280;6752;52.612;13.630;2023-12-20T22:25:57;99696.89;;;4.61;100.00
13367;BME280;6752;52.612;13.630;2023-12-20T22:30:59;99685.06;;;4.59;100.00
13367;BME280;6752;52.612;13.630;2023-12-20T22:36:02;99677.80;;;4.56;100.00
13367;BME280;6752;52.612;13.630;2023-12-20T22:41:04;99665.86;;;4.58;100.00
13367;BME280;6752;52.612;13.630;2023-12-20T22:46:06;99663.16;;;4.58;100.00
13367;BME280;6752;52.612;13.630;2023-12-20T22:51:09;99654.83;;;4.46;100.00
13367;BME280;6752;52.612;13.630;2023-12-20T22:56:11;99647.46;;;4.47;100.00
13367;BME280;6752;52.612;13.630;2023-12-20T23:01:13;99638.64;;;4.46;100.00
13367;BME280;6752;52.612;13.630;2023-12-20T23:06:16;99638.64;;;4.36;100.00
13367;BME280;6752;52.612;13.630;2023-12-20T23:11:18;99629.41;;;4.28;100.00
13367;BME280;6752;52.612;13.630;2023-12-20T23:16:20;99620.08;;;4.27;100.00
13367;BME280;6752;52.612;13.630;2023-12-20T23:21:23;99604.20;;;4.28;100.00
13367;BME280;6752;52.612;13.630;2023-12-20T23:26:25;99586.44;;;4.13;100.00
13367;BME280;6752;52.612;13.630;2023-12-20T23:31:27;99568.80;;;4.08;100.00
13367;BME280;6752;52.612;13.630;2023-12-20T23:36:30;99556.22;;;3.91;100.00
13367;BME280;6752;52.612;13.630;2023-12-20T23:41:32;99534.97;;;3.89;100.00
13367;BME280;6752;52.612;13.630;2023-12-20T23:46:35;99511.33;;;3.91;100.00
13367;BME280;6752;52.612;13.630;2023-12-20T23:51:38;99486.13;;;3.91;100.00
13367;BME280;6752;52.612;13.630;2023-12-20T23:56:40;99449.31;;;3.97;100.00
